Time;durP1;ratioP1;P1;durP2;ratioP2;P2;SDS_P1;SDS_P2;PMS_P1;PMS_P2;Temp;Humidity;BMP_temperature;BMP_pressure;BME280_temperature;BME280_humidity;BME280_pressure;Samples;Min_cycle;Max_cycle;Signal;HPM_P1;HPM_P2
2022/08/29 00:02:17;;;;;;;64.43;39.08;;;;;;;19.86;52.18;98896.78;5031576;28;20033;-62
2022/08/29 00:04:42;;;;;;;63.97;39.42;;;;;;;19.85;51.60;98897.09;5030996;28;20083;-63
2022/08/29 00:07:08;;;;;;;61.67;40.10;;;;;;;19.86;51.54;98893.31;5029950;28;20450;-62
2022/08/29 00:09:34;;;;;;;68.20;39.72;;;;;;;19.84;51.60;98890.94;5031410;28;20077;-62
2022/08/29 00:11:59;;;;;;;61.95;38.83;;;;;;;19.84;51.60;98901.69;5029948;28;20050;-64
2022/08/29 00:14:25;;;;;;;65.43;40.00;;;;;;;19.81;51.58;98901.50;5029994;28;20077;-62
2022/08/29 00:16:50;;;;;;;60.55;40.85;;;;;;;19.78;51.46;98889.47;5029860;28;20045;-63
2022/08/29 00:19:16;;;;;;;63.05;38.05;;;;;;;19.72;51.83;98894.19;5031339;28;20107;-62
2022/08/29 00:21:42;;;;;;;61.17;38.55;;;;;;;19.68;51.87;98892.44;5031010;28;20045;-63
2022/08/29 00:24:07;;;;;;;62.63;39.72;;;;;;;19.61;52.04;98887.47;5029922;28;20407;-63
2022/08/29 00:26:34;;;;;;;55.60;37.83;;;;;;;19.55;52.21;98883.31;5029674;28;20037;-62
2022/08/29 00:29:00;;;;;;;65.10;39.38;;;;;;;19.46;52.38;98877.13;5029844;28;20049;-62
2022/08/29 00:31:26;;;;;;;56.58;38.33;;;;;;;19.39;52.65;98877.56;5029590;28;20044;-63
2022/08/29 00:33:52;;;;;;;66.00;39.58;;;;;;;19.38;52.74;98870.59;5030925;28;20057;-63
2022/08/29 00:36:17;;;;;;;55.25;36.97;;;;;;;19.34;53.04;98874.22;5030896;28;20361;-63
2022/08/29 00:38:43;;;;;;;59.85;39.58;;;;;;;19.26;52.89;98873.84;5030891;28;20045;-63
2022/08/29 00:41:09;;;;;;;59.33;39.03;;;;;;;19.24;52.77;98867.22;5031047;28;20042;-62
2022/08/29 00:43:36;;;;;;;61.88;40.00;;;;;;;19.19;52.88;98857.38;5030835;28;20579;-63
2022/08/29 00:46:28;;;;;;;61.95;38.45;;;;;;;19.16;53.43;98849.91;5031080;28;20046;-63
2022/08/29 00:49:01;;;;;;;59.42;38.70;;;;;;;19.14;53.12;98845.94;5029272;28;20057;-64
2022/08/29 00:51:27;;;;;;;57.00;38.05;;;;;;;19.09;52.97;98844.19;5013082;28;20133;-62
2022/08/29 00:53:57;;;;;;;64.43;38.30;;;;;;;19.07;52.81;98843.69;5013086;28;20140;-63
2022/08/29 00:56:23;;;;;;;58.80;37.55;;;;;;;19.06;53.00;98842.91;5029423;28;20045;-63
2022/08/29 00:58:56;;;;;;;60.22;39.08;;;;;;;19.04;53.24;98838.94;5029654;28;20510;-64
2022/08/29 01:01:22;;;;;;;59.00;37.53;;;;;;;18.98;53.72;98832.91;5030543;28;20052;-64
2022/08/29 01:03:48;;;;;;;61.83;37.83;;;;;;;18.92;54.42;98828.75;5030716;28;20041;-61
2022/08/29 01:06:14;;;;;;;64.22;39.30;;;;;;;18.85;54.70;98823.00;5030686;28;20308;-62
2022/08/29 01:08:40;;;;;;;62.42;39.90;;;;;;;18.82;54.54;98812.88;5012858;28;20053;-62
2022/08/29 01:13:53;;;;;;;64.32;42.65;;;;;;;18.98;54.09;98813.31;5030656;28;20045;-63
2022/08/29 01:16:19;;;;;;;64.25;42.20;;;;;;;19.00;54.27;98805.72;5013149;28;20091;-63
2022/08/29 01:18:48;;;;;;;69.00;41.97;;;;;;;18.96;54.58;98802.88;5032888;28;20049;-63
2022/08/29 01:21:21;;;;;;;61.80;39.80;;;;;;;18.89;54.84;98791.78;5033334;28;20073;-63
2022/08/29 01:24:00;;;;;;;63.38;39.75;;;;;;;18.85;54.74;98790.78;5034539;28;20067;-63
2022/08/29 01:26:27;;;;;;;56.08;37.45;;;;;;;18.79;54.86;98792.78;5016483;28;20552;-66
2022/08/29 01:28:53;;;;;;;64.45;39.63;;;;;;;18.74;55.13;98782.22;5032874;28;20506;-63
2022/08/29 01:31:22;;;;;;;56.60;35.83;;;;;;;18.68;55.11;98783.41;5032839;28;20187;-62
2022/08/29 01:33:49;;;;;;;52.72;35.33;;;;;;;18.63;54.96;98780.81;5034120;28;20061;-63
2022/08/29 01:36:18;;;;;;;47.88;33.13;;;;;;;18.65;54.59;98770.59;5033928;28;20048;-63
2022/08/29 01:38:43;;;;;;;50.58;33.47;;;;;;;18.67;54.53;98772.94;5034036;28;20355;-61
2022/08/29 01:41:09;;;;;;;51.90;32.17;;;;;;;18.66;54.30;98768.69;5033910;28;20037;-61
2022/08/29 01:43:48;;;;;;;43.88;30.27;;;;;;;18.64;54.72;98760.13;5032959;28;20474;-63
2022/08/29 01:46:15;;;;;;;45.22;30.27;;;;;;;18.64;54.46;98757.47;5033844;28;20041;-62
2022/08/29 01:48:43;;;;;;;49.22;29.85;;;;;;;18.61;54.49;98756.19;5032741;28;20095;-63
2022/08/29 01:51:10;;;;;;;42.17;27.83;;;;;;;18.57;54.83;98747.94;5033766;28;20499;-64
2022/08/29 01:53:36;;;;;;;45.17;28.45;;;;;;;18.58;54.66;98756.78;5033680;28;20053;-63
2022/08/29 01:56:36;;;;;;;43.08;26.80;;;;;;;18.56;54.79;98743.69;5015957;28;20038;-63
2022/08/29 01:59:05;;;;;;;39.90;26.10;;;;;;;18.53;54.83;98741.63;5033908;28;20049;-62
2022/08/29 02:01:34;;;;;;;41.90;25.50;;;;;;;18.50;55.17;98741.41;5032247;28;20503;-62
2022/08/29 02:03:59;;;;;;;42.42;25.35;;;;;;;18.45;54.86;98736.97;5015864;28;20122;-63
2022/08/29 02:06:26;;;;;;;39.13;24.73;;;;;;;18.43;55.16;98739.16;5032496;28;20486;-63
2022/08/29 02:08:51;;;;;;;36.00;24.25;;;;;;;18.38;55.49;98736.59;5033363;28;20045;-62
2022/08/29 02:11:17;;;;;;;40.95;24.67;;;;;;;18.38;55.39;98737.41;5015664;28;20491;-63
2022/08/29 02:13:49;;;;;;;37.40;22.83;;;;;;;18.36;55.39;98736.91;5032081;28;20399;-61
2022/08/29 02:16:16;;;;;;;34.90;21.98;;;;;;;18.36;55.14;98731.53;5031771;28;20569;-61
2022/08/29 02:18:41;;;;;;;35.20;24.25;;;;;;;18.33;55.50;98736.72;5033243;28;20081;-63
2022/08/29 02:21:09;;;;;;;31.67;21.73;;;;;;;18.31;55.53;98731.66;5015342;28;20087;-61
2022/08/29 02:23:36;;;;;;;33.15;21.65;;;;;;;18.28;55.71;98734.16;5031675;28;20045;-62
2022/08/29 02:26:02;;;;;;;34.92;21.50;;;;;;;18.26;55.82;98721.03;5033084;28;20073;-63
2022/08/29 02:28:28;;;;;;;33.50;20.90;;;;;;;18.19;55.95;98720.69;5014762;28;20045;-62
2022/08/29 02:30:55;;;;;;;30.98;20.50;;;;;;;18.19;56.15;98714.53;5031730;28;20038;-63
2022/08/29 02:33:20;;;;;;;31.08;21.58;;;;;;;18.12;56.51;98721.09;5032878;28;20068;-60
2022/08/29 02:35:47;;;;;;;29.25;20.35;;;;;;;18.11;56.75;98721.38;5031564;28;20046;-62
2022/08/29 02:38:14;;;;;;;35.53;21.38;;;;;;;18.05;56.84;98718.03;5031546;28;20404;-62
2022/08/29 02:40:40;;;;;;;37.10;21.98;;;;;;;18.08;56.86;98705.91;5031620;28;20042;-62
2022/08/29 02:43:06;;;;;;;29.17;19.85;;;;;;;18.08;56.92;98706.69;5032966;28;20041;-63
2022/08/29 02:45:32;;;;;;;30.92;20.30;;;;;;;18.13;56.81;98706.59;5032967;28;20050;-63
2022/08/29 02:47:58;;;;;;;29.60;19.15;;;;;;;18.20;56.86;98702.69;5014875;28;20503;-62
2022/08/29 02:50:24;;;;;;;31.60;19.30;;;;;;;18.27;56.59;98717.28;5032942;28;20046;-60
2022/08/29 02:52:51;;;;;;;29.20;19.13;;;;;;;18.33;56.39;98715.25;5031586;28;20053;-62
2022/08/29 02:55:18;;;;;;;27.95;18.33;;;;;;;18.36;56.14;98706.59;5014926;28;20057;-63
2022/08/29 02:57:44;;;;;;;28.13;19.60;;;;;;;18.39;56.00;98697.94;5031055;28;20083;-62
2022/08/29 03:00:15;;;;;;;29.60;18.60;;;;;;;18.42;56.09;98699.22;5031279;28;20041;-62
2022/08/29 03:02:45;;;;;;;25.40;17.98;;;;;;;18.46;55.82;98686.78;5032526;28;20067;-63
2022/08/29 03:05:10;;;;;;;28.75;18.92;;;;;;;18.51;56.07;98670.56;5032809;28;20060;-62
2022/08/29 03:07:36;;;;;;;32.53;16.67;;;;;;;18.55;55.78;98682.25;5032390;28;20434;-63
2022/08/29 03:10:03;;;;;;;25.15;16.92;;;;;;;18.59;55.91;98696.66;5032860;28;20052;-62
2022/08/29 03:12:28;;;;;;;26.60;17.35;;;;;;;18.63;55.75;98694.16;5032588;28;20042;-61
2022/08/29 03:14:55;;;;;;;28.17;17.30;;;;;;;18.68;55.87;98699.38;5031156;28;20052;-64
2022/08/29 03:17:20;;;;;;;26.65;17.95;;;;;;;18.64;55.97;98691.13;5031223;28;20045;-64
2022/08/29 03:19:46;;;;;;;32.75;17.15;;;;;;;18.66;55.66;98682.78;5030946;28;20068;-62
2022/08/29 03:22:11;;;;;;;26.42;16.83;;;;;;;18.69;55.82;98680.28;5032251;28;20037;-64
2022/08/29 03:24:37;;;;;;;21.52;15.52;;;;;;;18.77;55.33;98670.72;5032050;28;20054;-62
2022/08/29 03:27:03;;;;;;;22.60;15.20;;;;;;;18.83;55.45;98664.91;5031941;28;20041;-63
2022/08/29 03:29:29;;;;;;;27.70;16.52;;;;;;;18.91;55.32;98673.28;5030865;28;20056;-63
2022/08/29 03:31:58;;;;;;;22.88;15.80;;;;;;;18.94;55.30;98667.31;5032138;28;20042;-63
2022/08/29 03:34:26;;;;;;;22.80;15.00;;;;;;;18.95;55.23;98672.38;5032323;28;20094;-63
2022/08/29 03:36:52;;;;;;;22.27;15.40;;;;;;;18.93;55.16;98666.53;5030602;28;20041;-62
2022/08/29 03:39:18;;;;;;;22.25;14.00;;;;;;;18.94;54.91;98662.75;5031418;28;20041;-61
2022/08/29 03:41:43;;;;;;;21.23;13.82;;;;;;;18.99;54.62;98656.44;5031829;28;20041;-63
2022/08/29 03:44:09;;;;;;;20.58;14.98;;;;;;;19.00;54.62;98656.13;5032161;28;20091;-62
2022/08/29 03:46:36;;;;;;;19.02;13.40;;;;;;;19.01;54.11;98665.78;5031666;28;20049;-62
2022/08/29 03:49:02;;;;;;;21.08;14.32;;;;;;;19.05;54.18;98661.34;5032030;28;20045;-63
2022/08/29 03:51:30;;;;;;;18.98;12.85;;;;;;;19.12;53.80;98662.78;5031911;28;20038;-64
2022/08/29 03:53:57;;;;;;;19.65;13.18;;;;;;;19.14;53.50;98665.97;5031886;28;20048;-64
2022/08/29 03:56:23;;;;;;;20.00;12.68;;;;;;;19.22;53.44;98668.69;5030219;28;20509;-64
2022/08/29 03:58:49;;;;;;;20.30;13.13;;;;;;;19.25;53.38;98680.69;5031660;28;20514;-64
2022/08/29 04:01:17;;;;;;;19.10;12.95;;;;;;;19.26;53.21;98679.59;5031412;28;20056;-63
2022/08/29 04:03:42;;;;;;;18.58;12.57;;;;;;;19.36;53.25;98692.75;5030267;28;20060;-61
2022/08/29 04:06:08;;;;;;;19.33;12.07;;;;;;;19.38;52.56;98693.22;5030155;28;20041;-62
2022/08/29 04:08:33;;;;;;;19.95;12.65;;;;;;;19.36;52.76;98676.63;5013688;28;20045;-63
2022/08/29 04:10:59;;;;;;;18.27;12.35;;;;;;;19.39;52.40;98667.16;5031645;28;20526;-62
2022/08/29 04:13:25;;;;;;;19.17;12.43;;;;;;;19.40;52.25;98647.22;5030051;28;20041;-65
2022/08/29 04:15:51;;;;;;;21.52;12.30;;;;;;;19.40;52.22;98656.06;5030004;28;20064;-63
2022/08/29 04:18:16;;;;;;;23.88;12.23;;;;;;;19.39;52.39;98683.28;5031635;28;20045;-63
2022/08/29 04:20:43;;;;;;;16.83;11.98;;;;;;;19.36;52.39;98647.06;5031694;28;20053;-62
2022/08/29 04:23:11;;;;;;;22.88;12.60;;;;;;;19.37;52.46;98658.59;5031311;28;20048;-63
2022/08/29 04:25:37;;;;;;;19.05;13.02;;;;;;;19.40;52.45;98637.25;5030063;28;20057;-61
2022/08/29 04:28:05;;;;;;;19.05;13.48;;;;;;;19.49;52.50;98643.44;5031250;28;20255;-63
2022/08/29 04:30:31;;;;;;;20.65;13.35;;;;;;;19.58;52.68;98627.31;5030978;28;20057;-64
2022/08/29 04:32:57;;;;;;;26.27;16.45;;;;;;;19.63;52.21;98623.69;5030740;28;20053;-62
2022/08/29 04:35:22;;;;;;;27.92;17.73;;;;;;;19.68;52.13;98612.84;5013570;28;20049;-63
2022/08/29 04:37:48;;;;;;;25.65;16.67;;;;;;;19.74;51.84;98606.19;5031046;28;20033;-63
2022/08/29 04:40:18;;;;;;;24.65;15.95;;;;;;;19.76;51.91;98600.47;5029960;28;20132;-64
2022/08/29 04:42:45;;;;;;;27.65;16.25;;;;;;;19.77;51.67;98597.47;5029742;28;20041;-62
2022/08/29 04:45:13;;;;;;;29.25;17.15;;;;;;;19.86;51.81;98592.09;5029926;28;20042;-62
2022/08/29 04:47:40;;;;;;;24.60;16.13;;;;;;;19.88;51.82;98585.31;5030982;28;20422;-63
2022/08/29 04:50:08;;;;;;;25.17;14.38;;;;;;;19.89;52.20;98565.34;5013411;28;20538;-64
2022/08/29 04:52:33;;;;;;;20.67;14.02;;;;;;;19.93;52.35;98560.91;5033354;28;20042;-62
2022/08/29 04:54:59;;;;;;;21.70;13.63;;;;;;;19.95;52.30;98558.69;5035067;28;20049;-63
2022/08/29 04:57:25;;;;;;;18.38;13.50;;;;;;;19.98;52.11;98561.88;5034448;28;20103;-63
2022/08/29 04:59:54;;;;;;;21.75;13.55;;;;;;;19.99;52.11;98547.31;5035088;28;20580;-62
2022/08/29 05:02:21;;;;;;;21.50;13.85;;;;;;;20.13;51.61;98553.28;5034657;28;20630;-62
2022/08/29 05:04:51;;;;;;;20.65;14.40;;;;;;;20.25;51.15;98556.09;5034637;28;20132;-63
2022/08/29 05:07:21;;;;;;;26.10;14.35;;;;;;;20.38;51.02;98559.69;5034961;28;20045;-63
2022/08/29 05:09:48;;;;;;;19.60;14.32;;;;;;;20.45;50.75;98557.31;5033386;28;20045;-62
2022/08/29 05:12:14;;;;;;;33.80;15.10;;;;;;;20.44;50.77;98558.41;5033276;28;20044;-62
2022/08/29 05:14:40;;;;;;;23.48;14.15;;;;;;;20.44;50.64;98553.00;5034631;28;20045;-61
2022/08/29 05:17:05;;;;;;;22.85;14.57;;;;;;;20.42;50.79;98553.34;5034251;28;20418;-63
2022/08/29 05:19:32;;;;;;;30.00;14.13;;;;;;;20.50;50.80;98564.38;5034314;28;20049;-62
2022/08/29 05:21:58;;;;;;;27.00;14.68;;;;;;;20.53;50.70;98567.28;5034360;28;20187;-61
2022/08/29 05:24:24;;;;;;;29.08;14.95;;;;;;;20.55;50.21;98564.25;5034532;28;20614;-63
2022/08/29 05:26:50;;;;;;;31.67;14.95;;;;;;;20.59;50.01;98559.81;5034132;28;20041;-63
2022/08/29 05:29:16;;;;;;;25.60;16.00;;;;;;;20.70;49.83;98552.16;5034466;28;20045;-61
2022/08/29 05:31:42;;;;;;;25.23;15.65;;;;;;;20.84;49.36;98564.28;5033878;28;20037;-62
2022/08/29 05:34:10;;;;;;;24.90;15.77;;;;;;;20.97;48.93;98567.88;5033089;28;20041;-63
2022/08/29 05:36:35;;;;;;;28.40;16.42;;;;;;;21.14;48.70;98593.91;5032928;28;20410;-63
2022/08/29 05:39:02;;;;;;;26.58;16.80;;;;;;;21.20;48.45;98583.72;5034022;28;20128;-63
2022/08/29 05:41:28;;;;;;;30.92;16.67;;;;;;;21.26;48.46;98580.50;5034115;28;20045;-64
2022/08/29 05:43:56;;;;;;;28.30;16.85;;;;;;;21.33;48.46;98569.22;5034064;28;20471;-65
2022/08/29 05:46:22;;;;;;;28.25;17.55;;;;;;;21.45;47.95;98569.31;5032860;28;20443;-63
2022/08/29 05:48:47;;;;;;;35.22;17.10;;;;;;;21.54;47.97;98544.97;5033942;28;20107;-64
2022/08/29 05:51:15;;;;;;;29.00;18.33;;;;;;;21.56;47.53;98561.63;5033954;28;20045;-65
2022/08/29 05:53:40;;;;;;;32.78;18.55;;;;;;;21.59;47.60;98552.88;5034067;28;20124;-64
2022/08/29 05:56:06;;;;;;;34.45;18.15;;;;;;;21.65;47.14;98550.72;5033721;28;20104;-63
2022/08/29 05:58:31;;;;;;;30.30;19.05;;;;;;;21.73;47.01;98563.34;5033889;28;20041;-63
2022/08/29 06:00:57;;;;;;;32.35;19.23;;;;;;;21.84;46.62;98545.66;5032606;28;20121;-63
2022/08/29 06:03:22;;;;;;;30.95;19.20;;;;;;;21.90;46.64;98554.31;5031182;28;20510;-63
2022/08/29 06:05:50;;;;;;;37.00;21.05;;;;;;;21.94;46.07;98555.22;5032403;28;20072;-63
2022/08/29 06:08:16;;;;;;;40.78;20.83;;;;;;;21.93;45.91;98565.22;5033282;28;20046;-63
2022/08/29 06:10:43;;;;;;;33.95;22.20;;;;;;;21.93;45.71;98569.84;5033240;28;20045;-62
2022/08/29 06:13:09;;;;;;;39.30;23.05;;;;;;;21.90;45.59;98557.81;5032245;28;20101;-63
2022/08/29 06:15:35;;;;;;;31.60;21.60;;;;;;;21.91;45.17;98555.88;5033561;28;20085;-63
2022/08/29 06:18:01;;;;;;;40.38;22.23;;;;;;;21.85;45.68;98546.44;5015362;28;20132;-62
2022/08/29 06:20:26;;;;;;;37.65;21.67;;;;;;;21.86;45.66;98551.50;5033421;28;20053;-63
2022/08/29 06:22:52;;;;;;;41.47;21.77;;;;;;;21.91;45.59;98554.00;5033091;28;20037;-62
2022/08/29 06:25:18;;;;;;;37.85;22.05;;;;;;;21.90;45.62;98547.00;5033007;28;20049;-62
2022/08/29 06:27:43;;;;;;;37.60;22.35;;;;;;;21.96;45.30;98556.47;5033406;28;20176;-64
2022/08/29 06:30:10;;;;;;;37.63;22.60;;;;;;;22.08;45.22;98557.63;5033416;28;20061;-63
2022/08/29 06:32:35;;;;;;;32.83;21.52;;;;;;;22.28;45.22;98556.81;5031581;28;20049;-63
2022/08/29 06:35:01;;;;;;;37.17;24.20;;;;;;;22.52;44.42;98545.25;5031850;28;20119;-64
2022/08/29 06:37:28;;;;;;;41.25;22.67;;;;;;;22.73;43.88;98561.34;5033041;28;20419;-62
2022/08/29 06:39:54;;;;;;;41.17;22.48;;;;;;;22.82;43.92;98553.13;5032895;28;20057;-63
2022/08/29 06:42:23;;;;;;;37.50;22.02;;;;;;;22.77;43.84;98553.38;5032848;28;20042;-63
2022/08/29 06:44:49;;;;;;;35.22;23.60;;;;;;;22.84;43.68;98561.69;5031544;28;20045;-64
2022/08/29 06:47:15;;;;;;;45.88;24.20;;;;;;;22.89;43.76;98556.84;5033136;28;20048;-65
2022/08/29 06:49:40;;;;;;;37.97;23.55;;;;;;;22.97;43.22;98546.25;5032894;28;20136;-63
2022/08/29 06:52:06;;;;;;;37.13;24.23;;;;;;;23.01;43.17;98558.00;5031382;28;20041;-63
2022/08/29 06:54:32;;;;;;;43.80;24.33;;;;;;;22.97;42.83;98546.25;5031196;28;20049;-62
2022/08/29 06:56:58;;;;;;;40.10;24.17;;;;;;;22.98;43.18;98543.25;5032783;28;20037;-63
2022/08/29 06:59:25;;;;;;;43.95;24.80;;;;;;;23.10;42.65;98537.03;5031315;28;20049;-63
2022/08/29 07:01:51;;;;;;;41.42;24.42;;;;;;;23.15;42.88;98533.28;5014652;28;20037;-63
2022/08/29 07:04:16;;;;;;;39.92;24.73;;;;;;;23.23;42.80;98543.19;5032276;28;20068;-63
2022/08/29 07:06:42;;;;;;;41.65;24.80;;;;;;;23.36;42.51;98547.44;5032167;28;20532;-63
2022/08/29 07:09:09;;;;;;;37.85;23.90;;;;;;;23.46;42.23;98541.53;5032508;28;20041;-62
2022/08/29 07:11:36;;;;;;;47.22;24.90;;;;;;;23.72;41.71;98540.34;5032172;28;20135;-62
2022/08/29 07:14:03;;;;;;;37.75;25.25;;;;;;;23.87;41.69;98536.09;5014543;28;20041;-63
2022/08/29 07:16:30;;;;;;;37.47;24.35;;;;;;;23.90;41.14;98543.53;5030901;28;20049;-63
2022/08/29 07:18:56;;;;;;;43.05;24.40;;;;;;;23.80;41.25;98537.50;5032419;28;20045;-63
2022/08/29 07:21:24;;;;;;;42.78;25.70;;;;;;;23.67;41.47;98532.44;5031964;28;20044;-63
2022/08/29 07:23:51;;;;;;;45.70;25.30;;;;;;;23.74;41.57;98544.28;5032412;28;20045;-63
2022/08/29 07:26:28;;;;;;;43.40;27.08;;;;;;;23.79;41.08;98544.03;5032338;28;20076;-63
2022/08/29 07:28:55;;;;;;;36.55;24.40;;;;;;;24.07;40.85;98543.22;5032111;28;20511;-63
2022/08/29 07:31:21;;;;;;;45.63;25.98;;;;;;;24.32;40.02;98546.53;5030613;28;20414;-63
2022/08/29 07:33:47;;;;;;;42.83;26.05;;;;;;;24.50;40.05;98538.09;5031965;28;20199;-63
2022/08/29 07:36:13;;;;;;;41.55;25.55;;;;;;;24.55;39.19;98538.63;5031669;28;20088;-62
2022/08/29 07:38:38;;;;;;;44.95;25.13;;;;;;;24.61;39.20;98531.81;5030804;28;20055;-63
2022/08/29 07:41:07;;;;;;;44.95;26.13;;;;;;;24.78;39.58;98538.78;5031755;28;20507;-63
2022/08/29 07:43:33;;;;;;;45.13;25.13;;;;;;;25.04;38.14;98519.22;5031765;28;20033;-63
2022/08/29 07:46:05;;;;;;;43.75;25.17;;;;;;;25.09;37.76;98518.16;5031602;28;20051;-63
2022/08/29 07:48:30;;;;;;;42.22;24.15;;;;;;;25.06;37.54;98519.66;5031547;28;20068;-61
2022/08/29 07:50:56;;;;;;;40.08;22.73;;;;;;;25.20;37.33;98521.91;5031584;28;20041;-63
2022/08/29 07:53:22;;;;;;;39.58;21.80;;;;;;;25.32;35.29;98515.56;5031672;28;20049;-63
2022/08/29 07:55:47;;;;;;;34.30;19.88;;;;;;;25.48;34.04;98510.06;5031412;28;20123;-62
2022/08/29 07:58:13;;;;;;;41.30;20.48;;;;;;;25.61;33.58;98517.69;5031241;28;20053;-63
2022/08/29 08:00:39;;;;;;;33.47;19.65;;;;;;;25.84;33.15;98522.41;5031712;28;20077;-63
2022/08/29 08:03:04;;;;;;;36.35;20.50;;;;;;;26.00;32.52;98517.69;5030388;28;20492;-63
2022/08/29 08:05:30;;;;;;;33.78;20.80;;;;;;;26.12;32.46;98516.72;5031500;28;20415;-62
2022/08/29 08:07:55;;;;;;;36.33;21.48;;;;;;;26.25;32.85;98512.66;5030158;28;20034;-63
2022/08/29 08:10:21;;;;;;;36.05;20.50;;;;;;;26.36;32.83;98506.63;5030155;28;20051;-63
2022/08/29 08:12:47;;;;;;;50.38;22.88;;;;;;;26.45;33.10;98518.03;5031649;28;20049;-62
2022/08/29 08:15:14;;;;;;;41.70;22.67;;;;;;;26.53;32.87;98510.78;5031739;28;20065;-61
2022/08/29 08:17:41;;;;;;;42.67;22.67;;;;;;;26.54;32.99;98506.94;5031369;28;20049;-63
2022/08/29 08:20:08;;;;;;;36.03;21.98;;;;;;;26.50;33.30;98512.28;5029891;28;20117;-63
2022/08/29 08:22:34;;;;;;;43.05;23.90;;;;;;;26.48;34.03;98512.66;5029725;28;20051;-63
2022/08/29 08:25:00;;;;;;;39.42;25.80;;;;;;;26.46;34.21;98511.44;5030695;28;20041;-62
2022/08/29 08:27:25;;;;;;;41.97;23.60;;;;;;;26.34;33.75;98509.69;5030801;28;20033;-63
2022/08/29 08:29:52;;;;;;;42.30;22.27;;;;;;;26.32;33.72;98511.19;5031069;28;20041;-64
2022/08/29 08:32:17;;;;;;;39.08;20.80;;;;;;;26.34;33.66;98503.47;5030870;28;20532;-63
2022/08/29 08:34:43;;;;;;;39.70;21.27;;;;;;;26.42;33.33;98505.16;5030784;28;20096;-63
2022/08/29 08:37:09;;;;;;;36.05;21.77;;;;;;;26.52;33.42;98514.66;5030850;28;20041;-63
2022/08/29 08:39:36;;;;;;;46.13;21.48;;;;;;;26.52;33.65;98507.28;5031038;28;20044;-63
2022/08/29 08:42:15;;;;;;;50.35;22.98;;;;;;;26.47;33.67;98502.94;5030940;28;20392;-65
2022/08/29 08:44:56;;;;;;;39.45;21.27;;;;;;;26.60;33.62;98505.47;5013355;28;20419;-63
2022/08/29 08:47:25;;;;;;;36.38;21.58;;;;;;;26.62;33.71;98514.84;5029650;28;20041;-62
2022/08/29 08:49:59;;;;;;;36.25;20.20;;;;;;;26.53;33.71;98502.63;5029600;28;20042;-63
2022/08/29 08:52:46;;;;;;;41.20;18.27;;;;;;;26.48;33.86;98504.50;5030883;28;20076;-64
2022/08/29 08:55:23;;;;;;;41.05;17.25;;;;;;;26.31;34.36;98506.94;5010301;28;20148;-64
2022/08/29 08:57:59;;;;;;;44.65;16.88;;;;;;;26.09;34.67;98513.91;5029548;28;20045;-64
2022/08/29 09:00:26;;;;;;;35.08;16.50;;;;;;;26.00;34.89;98506.00;5013386;28;20046;-64
2022/08/29 09:03:04;;;;;;;31.10;15.65;;;;;;;26.03;35.08;98508.00;5013418;28;20053;-63
2022/08/29 09:06:30;;;;;;;29.83;15.73;;;;;;;26.06;35.05;98510.03;5031198;28;20045;-63
2022/08/29 09:09:19;;;;;;;30.73;15.50;;;;;;;26.15;34.96;98507.84;4972661;28;20069;-62
2022/08/29 09:12:03;;;;;;;27.88;13.55;;;;;;;26.20;34.98;98506.75;5026530;28;20132;-64
2022/08/29 09:14:58;;;;;;;39.13;13.55;;;;;;;26.25;35.20;98520.03;5030825;28;20392;-64
2022/08/29 09:17:29;;;;;;;27.75;12.02;;;;;;;26.33;35.11;98500.00;5028293;28;20060;-63
2022/08/29 09:19:56;;;;;;;24.25;11.18;;;;;;;26.36;35.30;98499.25;5029272;28;20156;-62
2022/08/29 09:22:26;;;;;;;35.47;10.00;;;;;;;26.32;35.16;98495.69;5030608;28;20068;-64
2022/08/29 09:24:54;;;;;;;27.98;9.13;;;;;;;26.30;35.25;98503.44;5013140;28;20042;-63
2022/08/29 09:27:23;;;;;;;41.28;10.43;;;;;;;26.26;35.39;98502.56;5030120;28;20506;-63
2022/08/29 09:29:54;;;;;;;28.23;8.20;;;;;;;26.33;35.04;98497.28;5030680;28;20041;-64
2022/08/29 09:32:19;;;;;;;23.63;7.75;;;;;;;26.42;35.33;98502.44;5029177;28;20188;-64
2022/08/29 09:34:46;;;;;;;19.02;6.60;;;;;;;26.45;35.37;98490.84;5030304;28;20478;-63
2022/08/29 09:37:30;;;;;;;21.73;7.40;;;;;;;26.59;35.63;98491.09;5030699;28;20049;-63
2022/08/29 09:40:09;;;;;;;36.95;6.85;;;;;;;26.67;35.73;98492.75;5033871;28;20419;-63
2022/08/29 09:42:39;;;;;;;30.60;7.25;;;;;;;26.63;35.80;98491.16;5034057;28;20056;-62
2022/08/29 09:45:17;;;;;;;34.67;6.85;;;;;;;26.68;35.93;98499.00;5034394;28;20045;-63
2022/08/29 09:47:44;;;;;;;20.10;5.85;;;;;;;26.63;35.78;98499.31;5033847;28;20052;-63
2022/08/29 09:50:24;;;;;;;31.38;6.43;;;;;;;26.67;36.41;98497.41;5032565;28;20049;-63
2022/08/29 09:52:57;;;;;;;23.67;6.07;;;;;;;26.61;36.52;98499.66;5033986;28;20072;-63
2022/08/29 09:55:43;;;;;;;28.40;6.22;;;;;;;26.70;36.38;98508.34;5033761;28;20086;-62
2022/08/29 09:58:15;;;;;;;24.13;6.13;;;;;;;26.70;36.96;98511.06;5033674;28;20411;-65
2022/08/29 10:00:45;;;;;;;25.83;6.72;;;;;;;26.62;37.13;98509.41;5034185;28;20049;-64
2022/08/29 10:03:20;;;;;;;21.30;5.93;;;;;;;26.59;37.02;98512.03;5032477;28;20048;-63
2022/08/29 10:05:49;;;;;;;28.48;6.45;;;;;;;26.55;37.21;98522.09;5032322;28;20071;-63
2022/08/29 10:08:33;;;;;;;33.90;5.80;;;;;;;26.40;36.98;98529.97;5033491;28;20041;-63
2022/08/29 10:11:21;;;;;;;24.20;5.60;;;;;;;26.26;37.01;98513.44;5033680;28;20119;-63
2022/08/29 10:13:57;;;;;;;32.05;6.57;;;;;;;26.22;37.18;98531.63;5001841;28;20095;-64
2022/08/29 10:16:33;;;;;;;30.55;6.50;;;;;;;26.25;36.80;98523.53;5031983;28;20033;-63
2022/08/29 10:18:58;;;;;;;32.22;6.60;;;;;;;26.28;36.68;98528.22;5032195;28;20081;-63
2022/08/29 10:21:48;;;;;;;28.13;5.60;;;;;;;26.44;36.19;98528.13;5033114;28;20084;-62
2022/08/29 10:24:23;;;;;;;30.27;6.30;;;;;;;26.63;36.21;98521.81;5015532;28;20041;-63
2022/08/29 10:26:48;;;;;;;22.35;5.78;;;;;;;26.79;35.74;98521.66;5033483;28;20045;-63
2022/08/29 10:29:16;;;;;;;17.73;5.60;;;;;;;26.92;36.14;98523.03;5033374;28;20064;-63
2022/08/29 10:31:54;;;;;;;18.25;5.50;;;;;;;27.00;35.83;98523.91;5032687;28;20555;-64
2022/08/29 10:34:29;;;;;;;17.98;5.78;;;;;;;27.11;35.54;98526.78;5031882;28;20049;-64
2022/08/29 10:37:00;;;;;;;20.42;5.97;;;;;;;27.16;35.42;98521.03;5033053;28;20537;-63
2022/08/29 10:39:47;;;;;;;24.50;6.25;;;;;;;27.24;35.09;98514.56;5031836;28;20052;-64
2022/08/29 10:42:18;;;;;;;33.40;7.40;;;;;;;27.18;34.57;98499.72;5032881;28;20041;-63
2022/08/29 10:44:43;;;;;;;32.00;5.97;;;;;;;27.27;34.40;98507.59;5015368;28;20184;-62
2022/08/29 10:47:26;;;;;;;75.75;8.88;;;;;;;27.33;34.37;98500.66;5031550;28;20561;-64
2022/08/29 10:50:07;;;;;;;24.33;6.07;;;;;;;27.42;34.59;98500.38;5032853;28;20057;-63
2022/08/29 10:52:53;;;;;;;25.55;5.65;;;;;;;27.72;34.53;98508.47;5031453;28;20048;-63
2022/08/29 10:55:31;;;;;;;22.50;5.65;;;;;;;27.78;33.77;98512.44;5032618;28;20506;-64
2022/08/29 10:58:43;;;;;;;19.42;5.65;;;;;;;27.66;34.43;98510.75;5032831;28;20115;-64
2022/08/29 11:01:22;;;;;;;16.55;5.97;;;;;;;27.66;34.47;98508.03;5004448;28;20427;-63
2022/08/29 11:04:04;;;;;;;20.70;6.10;;;;;;;27.37;34.09;98507.69;5031326;28;20048;-63
2022/08/29 11:06:34;;;;;;;15.65;5.53;;;;;;;27.27;34.75;98511.09;5032316;28;20414;-63
2022/08/29 11:09:17;;;;;;;21.30;5.70;;;;;;;27.35;34.18;98514.66;5031162;28;20073;-64
2022/08/29 11:12:02;;;;;;;20.98;5.93;;;;;;;27.36;34.71;98522.47;5031106;28;20072;-63
2022/08/29 11:14:37;;;;;;;24.83;6.25;;;;;;;27.26;35.06;98516.88;5014561;28;20156;-63
2022/08/29 11:17:06;;;;;;;17.67;5.90;;;;;;;27.29;35.13;98524.31;5030996;28;20041;-64
2022/08/29 11:19:44;;;;;;;21.70;7.13;;;;;;;27.35;35.12;98520.09;5031173;28;20049;-63
2022/08/29 11:22:19;;;;;;;24.77;6.70;;;;;;;27.48;35.30;98526.09;5031099;28;20562;-63
2022/08/29 11:25:00;;;;;;;26.20;7.45;;;;;;;27.57;35.12;98526.59;5031106;28;20053;-62
2022/08/29 11:27:40;;;;;;;16.35;6.45;;;;;;;27.53;35.37;98523.84;5032073;28;20120;-63
2022/08/29 11:30:17;;;;;;;25.65;6.30;;;;;;;27.26;36.14;98523.09;5032059;28;20042;-63
2022/08/29 11:33:05;;;;;;;32.17;6.85;;;;;;;26.96;36.61;98523.06;5014087;28;20049;-63